Terminal Aerodrome Forecast
Issued by NWS

Home | Current Version | Previous Version | Text Only | Print | Product List | Glossary On
Versions: 1 2 3 4 5 6 7 8 9 10 11 12 13
000
FTUS45 KRIW 042322
TAFWRL
TAF
KWRL 042322Z 0500/0524 03007KT P6SM SCT120
     FM050700 31007KT P6SM VCSH BKN100
     FM051900 35012KT P6SM VCTS SCT040CB BKN080=

USA.gov is the U.S. government's official web portal to all federal, state and local government web resources and services.